Time;durP1;ratioP1;P1;durP2;ratioP2;P2;SDS_P1;SDS_P2;PMS_P1;PMS_P2;Temp;Humidity;BMP_temperature;BMP_pressure;BME280_temperature;BME280_humidity;BME280_pressure;Samples;Min_cycle;Max_cycle;Signal;HPM_P1;HPM_P2
2022/04/22 00:00:37;;;;;;;3.85;2.90;;;17.50;59.20;;;;;;5061521;28;20126;-75
2022/04/22 00:03:06;;;;;;;4.50;3.13;;;17.50;59.20;;;;;;5089045;28;20111;-77
2022/04/22 00:05:32;;;;;;;3.78;2.75;;;17.50;59.30;;;;;;5064107;28;20031;-76
2022/04/22 00:07:58;;;;;;;4.63;3.05;;;17.50;59.30;;;;;;5093642;28;20020;-75
2022/04/22 00:10:24;;;;;;;3.88;2.70;;;17.40;59.30;;;;;;5088832;28;20105;-77
2022/04/22 00:12:50;;;;;;;4.53;3.35;;;17.40;60.00;;;;;;5066098;28;20059;-75
2022/04/22 00:15:16;;;;;;;4.60;2.88;;;17.40;59.40;;;;;;5082727;28;20058;-76
2022/04/22 00:17:42;;;;;;;3.40;2.67;;;17.30;59.40;;;;;;5088223;28;20106;-76
2022/04/22 00:20:11;;;;;;;4.72;3.20;;;17.30;59.30;;;;;;5084215;28;20039;-76
2022/04/22 00:22:41;;;;;;;4.78;3.47;;;17.30;59.40;;;;;;5063945;28;20028;-76
2022/04/22 00:25:12;;;;;;;4.28;3.03;;;17.30;59.50;;;;;;5074360;28;20051;-75
2022/04/22 00:27:40;;;;;;;4.10;2.92;;;17.20;59.40;;;;;;5061778;28;20016;-76
2022/04/22 00:30:09;;;;;;;4.82;3.35;;;17.20;59.50;;;;;;5094616;28;20101;-76
2022/04/22 00:32:35;;;;;;;4.47;2.80;;;17.20;59.60;;;;;;5084332;28;20016;-76
2022/04/22 00:35:03;;;;;;;3.92;3.00;;;17.10;59.60;;;;;;5089422;28;20127;-76
2022/04/22 00:37:29;;;;;;;4.43;3.10;;;17.10;59.60;;;;;;5053025;28;20024;-77
2022/04/22 00:39:55;;;;;;;4.55;3.10;;;17.10;59.60;;;;;;5077709;28;20089;-76
2022/04/22 00:42:21;;;;;;;5.03;3.60;;;17.10;59.60;;;;;;5078267;28;20084;-76
2022/04/22 00:44:47;;;;;;;4.30;3.10;;;17.00;59.60;;;;;;5088938;28;20078;-76
2022/04/22 00:47:12;;;;;;;4.22;3.05;;;17.00;59.60;;;;;;5085075;28;20032;-75
2022/04/22 00:49:38;;;;;;;4.70;2.78;;;17.00;59.60;;;;;;5076367;28;20142;-76
2022/04/22 00:52:05;;;;;;;4.15;3.15;;;16.90;60.20;;;;;;5090380;28;20554;-77
2022/04/22 00:54:32;;;;;;;5.45;3.15;;;16.90;59.60;;;;;;5077796;28;20102;-75
2022/04/22 00:56:58;;;;;;;4.15;3.10;;;16.90;59.60;;;;;;5076621;28;20487;-76
2022/04/22 00:59:25;;;;;;;4.80;3.30;;;16.90;59.70;;;;;;5065877;28;20045;-75
2022/04/22 01:01:50;;;;;;;4.78;3.50;;;16.80;59.70;;;;;;5036046;28;20076;-76
2022/04/22 01:09:48;;;;;;;4.53;3.35;;;16.80;59.80;;;;;;5092817;28;20039;-76
2022/04/22 01:12:15;;;;;;;5.05;3.08;;;16.70;59.70;;;;;;5059021;28;20028;-76
2022/04/22 01:14:44;;;;;;;4.55;3.17;;;16.70;59.80;;;;;;5086490;28;20055;-76
2022/04/22 01:17:10;;;;;;;4.13;3.13;;;16.60;59.70;;;;;;5084603;28;20046;-76
2022/04/22 01:19:36;;;;;;;4.25;3.10;;;16.60;59.70;;;;;;5082917;28;20128;-76
2022/04/22 01:22:03;;;;;;;4.93;3.08;;;16.60;59.80;;;;;;5082561;28;20060;-76
2022/04/22 01:24:29;;;;;;;4.03;3.00;;;16.60;59.80;;;;;;5085192;28;20480;-77
2022/04/22 01:26:55;;;;;;;4.53;3.20;;;16.50;59.80;;;;;;5080094;28;20040;-76
2022/04/22 01:29:22;;;;;;;3.92;3.10;;;16.50;59.80;;;;;;5100162;28;20059;-76
2022/04/22 01:31:48;;;;;;;4.28;3.20;;;16.50;59.90;;;;;;5074848;28;20032;-76
2022/04/22 01:34:14;;;;;;;4.72;3.20;;;16.40;59.80;;;;;;5076892;28;20054;-76
2022/04/22 01:36:39;;;;;;;3.88;2.95;;;16.40;59.90;;;;;;5083074;28;20032;-77
2022/04/22 01:39:05;;;;;;;3.88;2.85;;;16.40;59.90;;;;;;5098300;28;20068;-76
2022/04/22 01:41:31;;;;;;;4.00;3.10;;;16.40;60.00;;;;;;5084702;28;20024;-77
2022/04/22 01:43:57;;;;;;;4.32;3.00;;;16.30;60.00;;;;;;5092474;28;20048;-76
2022/04/22 01:46:23;;;;;;;4.53;3.45;;;16.30;60.00;;;;;;5077763;28;20043;-76
2022/04/22 01:48:49;;;;;;;4.95;3.25;;;16.30;60.10;;;;;;5090259;28;20032;-76
2022/04/22 01:51:15;;;;;;;5.55;3.50;;;16.30;60.10;;;;;;5094219;28;20372;-76
2022/04/22 01:53:41;;;;;;;4.78;3.40;;;16.20;60.00;;;;;;5100021;28;20088;-75
2022/04/22 01:56:07;;;;;;;5.18;3.17;;;16.20;60.10;;;;;;5081288;28;20556;-76
2022/04/22 01:58:33;;;;;;;4.40;3.13;;;16.20;60.10;;;;;;5090900;28;20083;-77
2022/04/22 02:00:59;;;;;;;4.30;3.10;;;16.10;60.10;;;;;;5090498;28;20123;-76
2022/04/22 02:03:24;;;;;;;4.28;2.92;;;16.10;60.10;;;;;;5098342;28;20452;-76
2022/04/22 02:05:50;;;;;;;4.63;3.20;;;16.10;60.10;;;;;;5096532;28;20020;-76
2022/04/22 02:08:16;;;;;;;4.50;3.10;;;16.10;60.10;;;;;;5089134;28;20058;-76
2022/04/22 02:10:43;;;;;;;4.20;2.85;;;16.00;60.10;;;;;;5078144;28;20083;-76
2022/04/22 02:13:09;;;;;;;4.22;3.30;;;16.00;60.10;;;;;;5094061;28;20024;-75
2022/04/22 02:15:36;;;;;;;4.38;3.00;;;16.00;60.20;;;;;;5086180;28;20043;-76
2022/04/22 02:18:03;;;;;;;4.63;3.30;;;15.90;60.20;;;;;;5085577;28;20063;-77
2022/04/22 02:20:28;;;;;;;4.85;3.08;;;15.90;60.20;;;;;;5094332;28;20037;-77
2022/04/22 02:22:54;;;;;;;4.15;2.95;;;15.90;60.20;;;;;;5090521;28;20115;-76
2022/04/22 02:25:20;;;;;;;4.88;3.20;;;15.90;60.20;;;;;;5100305;28;20024;-76
2022/04/22 02:30:31;;;;;;;3.75;2.75;;;15.80;60.20;;;;;;5091130;28;20024;-78
2022/04/22 02:32:56;;;;;;;4.68;3.15;;;15.80;60.20;;;;;;5093246;28;20043;-76
2022/04/22 02:35:22;;;;;;;4.97;2.92;;;15.70;60.90;;;;;;5078602;28;20564;-76
2022/04/22 02:37:49;;;;;;;3.85;2.70;;;15.70;60.30;;;;;;5094129;28;21480;-76
2022/04/22 02:45:43;;;;;;;4.00;2.87;;;15.60;60.40;;;;;;5081875;28;20436;-76
2022/04/22 02:48:09;;;;;;;4.03;3.05;;;15.60;60.40;;;;;;5093049;28;20043;-76
2022/04/22 02:50:35;;;;;;;4.00;2.70;;;15.60;60.50;;;;;;5076921;28;20027;-76
2022/04/22 02:53:01;;;;;;;4.47;3.00;;;15.50;60.70;;;;;;5087739;28;20028;-76
2022/04/22 02:55:26;;;;;;;4.57;3.28;;;15.50;60.70;;;;;;5099141;28;20048;-76
2022/04/22 02:57:52;;;;;;;4.72;2.97;;;15.50;60.70;;;;;;5073754;28;20032;-77
2022/04/22 03:00:18;;;;;;;4.28;3.08;;;15.50;60.70;;;;;;5083570;28;20041;-76
2022/04/22 03:02:44;;;;;;;4.07;2.70;;;15.40;60.60;;;;;;5076843;28;20032;-76
2022/04/22 03:05:10;;;;;;;4.60;3.20;;;15.40;60.70;;;;;;5094990;28;20119;-76
2022/04/22 03:07:37;;;;;;;4.90;3.25;;;15.40;60.80;;;;;;5077247;28;20419;-77
2022/04/22 03:10:07;;;;;;;4.18;2.90;;;15.40;60.90;;;;;;5073636;28;20451;-75
2022/04/22 03:12:34;;;;;;;3.78;2.78;;;15.40;60.90;;;;;;5073981;28;20031;-76
2022/04/22 03:15:03;;;;;;;4.25;2.78;;;15.40;60.80;;;;;;5044621;28;20029;-76
2022/04/22 03:17:29;;;;;;;4.97;3.08;;;15.30;60.80;;;;;;5075810;28;20488;-76
2022/04/22 03:19:56;;;;;;;4.38;3.13;;;15.30;60.90;;;;;;5075776;28;20070;-76
2022/04/22 03:22:21;;;;;;;3.67;2.50;;;15.30;60.80;;;;;;5076240;28;20119;-76
2022/04/22 03:24:48;;;;;;;4.43;2.80;;;15.20;60.80;;;;;;5079397;28;20051;-76
2022/04/22 03:27:14;;;;;;;4.35;3.03;;;15.20;61.50;;;;;;5095647;28;20032;-76
2022/04/22 03:29:40;;;;;;;3.72;2.80;;;15.20;60.90;;;;;;5059547;28;20032;-75
2022/04/22 03:32:06;;;;;;;3.92;2.80;;;15.20;60.90;;;;;;5084356;28;20024;-77
2022/04/22 03:34:32;;;;;;;3.78;2.85;;;15.20;60.90;;;;;;5090835;28;20253;-75
2022/04/22 03:36:59;;;;;;;4.05;3.03;;;15.10;60.90;;;;;;5073910;28;20038;-76
2022/04/22 03:39:25;;;;;;;4.38;2.90;;;15.10;60.90;;;;;;5054606;28;20043;-76
2022/04/22 03:41:51;;;;;;;4.57;3.10;;;15.10;60.90;;;;;;5081113;28;20023;-75
2022/04/22 03:44:17;;;;;;;4.43;3.13;;;15.10;60.90;;;;;;5090349;28;20101;-76
2022/04/22 03:46:42;;;;;;;4.13;3.05;;;15.10;60.90;;;;;;5075764;28;20056;-76
2022/04/22 03:49:09;;;;;;;4.40;3.25;;;15.00;60.90;;;;;;5066952;28;20056;-76
2022/04/22 03:51:36;;;;;;;4.57;3.15;;;15.00;60.90;;;;;;5089032;28;20522;-76
2022/04/22 03:54:02;;;;;;;4.35;2.92;;;15.00;61.00;;;;;;5097348;28;20028;-74
2022/04/22 03:59:12;;;;;;;3.78;3.00;;;15.00;61.00;;;;;;5080722;28;20044;-76
2022/04/22 04:01:37;;;;;;;4.88;3.10;;;14.90;60.90;;;;;;5054882;28;20016;-75
2022/04/22 04:04:03;;;;;;;5.15;3.20;;;14.90;61.00;;;;;;5099997;28;20400;-76
2022/04/22 04:06:29;;;;;;;4.47;2.97;;;14.90;61.00;;;;;;5052864;28;20032;-76
2022/04/22 04:17:08;;;;;;;3.83;2.70;;;14.80;61.00;;;;;;5090823;28;20080;-76
2022/04/22 04:25:03;;;;;;;4.13;2.95;;;14.70;61.00;;;;;;5081629;28;20135;-76
2022/04/22 04:27:29;;;;;;;4.10;3.03;;;14.70;61.10;;;;;;5042310;28;20043;-76
2022/04/22 04:29:55;;;;;;;4.82;3.35;;;14.60;61.10;;;;;;5097407;28;20080;-75
2022/04/22 04:32:21;;;;;;;4.63;3.25;;;14.60;61.10;;;;;;5085759;28;20457;-75
2022/04/22 04:34:47;;;;;;;4.97;3.35;;;14.60;61.20;;;;;;5038972;28;20124;-76
2022/04/22 04:37:13;;;;;;;4.38;3.22;;;14.60;61.20;;;;;;5094993;28;20028;-76
2022/04/22 04:39:40;;;;;;;4.93;3.25;;;14.60;61.20;;;;;;5083724;28;20058;-78
2022/04/22 04:42:08;;;;;;;4.50;3.15;;;14.60;61.20;;;;;;5080291;28;20111;-76
2022/04/22 04:44:36;;;;;;;4.88;3.33;;;14.60;61.30;;;;;;5090569;28;20466;-77
2022/04/22 04:47:02;;;;;;;4.75;3.35;;;14.50;61.20;;;;;;5091692;28;20051;-77
2022/04/22 04:49:29;;;;;;;5.78;3.40;;;14.60;61.30;;;;;;5085979;28;20024;-77
2022/04/22 04:51:55;;;;;;;7.32;3.53;;;14.50;61.30;;;;;;5069469;28;20036;-78
2022/04/22 04:54:20;;;;;;;4.93;3.22;;;14.50;61.30;;;;;;5096880;28;20031;-77
2022/04/22 04:56:46;;;;;;;5.03;3.75;;;14.50;61.30;;;;;;5089441;28;20521;-77
2022/04/22 04:59:12;;;;;;;4.75;3.50;;;14.40;61.30;;;;;;5073438;28;20048;-77
2022/04/22 05:01:37;;;;;;;4.75;3.30;;;14.40;61.30;;;;;;5074145;28;20032;-77
2022/04/22 05:04:04;;;;;;;5.40;3.70;;;14.40;61.30;;;;;;5091486;28;20051;-76
2022/04/22 05:06:30;;;;;;;5.95;4.03;;;14.40;61.40;;;;;;5069396;28;20024;-77
2022/04/22 05:08:56;;;;;;;3.80;2.88;;;14.40;61.50;;;;;;5098693;28;20558;-76
2022/04/22 05:11:22;;;;;;;4.97;3.58;;;14.40;61.50;;;;;;5100755;28;20111;-77
2022/04/22 05:13:48;;;;;;;4.90;3.83;;;14.30;61.50;;;;;;5076590;28;20040;-77
2022/04/22 05:16:14;;;;;;;5.20;3.50;;;14.30;61.50;;;;;;5077706;28;20055;-77
2022/04/22 05:18:40;;;;;;;5.50;3.63;;;14.30;61.50;;;;;;5073114;28;20048;-76
2022/04/22 05:21:06;;;;;;;4.75;3.53;;;14.30;61.60;;;;;;5091742;28;20040;-77
2022/04/22 05:23:32;;;;;;;4.50;3.40;;;14.30;61.60;;;;;;5092131;28;20020;-78
2022/04/22 05:26:01;;;;;;;3.97;3.15;;;14.30;61.60;;;;;;5087195;28;20031;-80
2022/04/22 05:28:28;;;;;;;4.85;3.60;;;14.30;61.60;;;;;;5093024;28;20079;-76
2022/04/22 05:33:39;;;;;;;4.77;3.47;;;14.30;61.70;;;;;;5089329;28;20473;-76
2022/04/22 05:36:06;;;;;;;5.07;3.88;;;14.20;61.60;;;;;;5075609;28;20413;-75
2022/04/22 05:38:34;;;;;;;4.43;3.35;;;14.20;61.70;;;;;;5086184;28;20028;-76
2022/04/22 05:41:00;;;;;;;5.18;3.55;;;14.20;61.70;;;;;;5098324;28;20062;-75
2022/04/22 05:43:26;;;;;;;5.20;3.88;;;14.20;61.70;;;;;;5083291;28;20024;-76
2022/04/22 05:45:51;;;;;;;5.00;3.78;;;14.20;61.80;;;;;;5083001;28;20028;-75
2022/04/22 05:48:17;;;;;;;4.72;3.72;;;14.20;61.80;;;;;;5074481;28;20498;-76
2022/04/22 05:50:43;;;;;;;5.55;3.90;;;14.20;61.80;;;;;;5088893;28;20043;-76
2022/04/22 05:53:09;;;;;;;4.88;3.97;;;14.20;61.90;;;;;;5092245;28;20073;-76
2022/04/22 05:55:35;;;;;;;5.20;3.88;;;14.20;61.90;;;;;;5103811;28;20376;-78
2022/04/22 05:58:01;;;;;;;4.93;3.67;;;14.10;61.80;;;;;;5086831;28;20117;-77
2022/04/22 06:00:30;;;;;;;5.07;3.95;;;14.10;61.90;;;;;;5084366;28;20433;-75
2022/04/22 06:02:56;;;;;;;5.20;3.92;;;14.10;62.00;;;;;;5099832;28;20040;-76
2022/04/22 06:05:22;;;;;;;4.50;3.63;;;14.10;61.90;;;;;;5092308;28;20020;-76
2022/04/22 06:10:31;;;;;;;5.22;4.00;;;14.10;62.00;;;;;;5086799;28;20058;-76
2022/04/22 06:10:35;;;;;;;5.22;3.90;;;14.10;62.00;;;;;;5102751;28;20067;-76
2022/04/22 06:13:01;;;;;;;5.03;4.03;;;14.10;62.00;;;;;;5085971;28;20637;-76
2022/04/22 06:15:27;;;;;;;5.00;3.83;;;14.10;62.10;;;;;;5103098;28;20059;-77
2022/04/22 06:17:53;;;;;;;5.22;3.78;;;14.10;62.10;;;;;;5087532;28;20485;-77
2022/04/22 06:20:19;;;;;;;5.28;4.32;;;14.10;62.10;;;;;;5091580;28;20039;-77
2022/04/22 06:22:45;;;;;;;5.22;3.67;;;14.10;62.10;;;;;;5084426;28;20085;-76
2022/04/22 06:25:11;;;;;;;4.82;3.70;;;14.10;62.20;;;;;;5085586;28;20456;-77
2022/04/22 06:27:39;;;;;;;5.13;3.92;;;14.10;62.20;;;;;;5102160;28;20024;-76
2022/04/22 06:30:10;;;;;;;5.05;4.18;;;14.00;62.20;;;;;;5082414;28;20043;-75
2022/04/22 06:32:37;;;;;;;5.43;3.92;;;14.10;62.30;;;;;;5098791;28;20087;-76
2022/04/22 06:35:04;;;;;;;5.88;3.83;;;14.10;62.90;;;;;;5091943;28;20047;-77
2022/04/22 06:37:41;;;;;;;6.60;4.18;;;14.10;62.30;;;;;;5091179;28;20119;-76
2022/04/22 06:45:48;;;;;;;6.18;4.47;;;14.10;62.40;;;;;;5093036;28;20027;-75
2022/04/22 06:48:20;;;;;;;5.70;4.43;;;14.10;62.40;;;;;;5099998;28;20060;-77
2022/04/22 06:50:48;;;;;;;5.93;4.03;;;14.00;62.40;;;;;;5086601;28;20069;-77
2022/04/22 06:53:18;;;;;;;5.53;4.30;;;14.10;62.50;;;;;;5075349;28;20027;-75
2022/04/22 06:55:46;;;;;;;6.65;4.25;;;14.10;62.50;;;;;;5097667;28;20547;-77
2022/04/22 06:58:14;;;;;;;5.28;3.75;;;14.10;62.60;;;;;;5073939;28;20024;-77
2022/04/22 07:00:41;;;;;;;5.72;4.53;;;14.10;62.60;;;;;;5100751;28;20036;-76
2022/04/22 07:03:08;;;;;;;5.72;4.45;;;14.10;62.60;;;;;;5094840;28;20097;-76
2022/04/22 07:05:36;;;;;;;6.05;4.53;;;14.10;62.60;;;;;;5080015;28;20019;-76
2022/04/22 07:08:04;;;;;;;5.30;4.05;;;14.10;62.70;;;;;;5090813;28;20039;-77
2022/04/22 07:10:30;;;;;;;6.32;4.82;;;14.10;62.70;;;;;;5084550;28;20045;-76
2022/04/22 07:12:57;;;;;;;5.95;3.92;;;14.10;62.70;;;;;;5078182;28;20164;-77
2022/04/22 07:15:24;;;;;;;5.93;4.25;;;14.10;62.70;;;;;;5094810;28;20081;-76
2022/04/22 07:17:50;;;;;;;5.63;4.50;;;14.10;62.70;;;;;;5099034;28;20047;-77
2022/04/22 07:20:16;;;;;;;6.10;4.70;;;14.10;62.70;;;;;;5089591;28;20040;-75
2022/04/22 07:22:45;;;;;;;6.15;4.82;;;14.20;62.80;;;;;;5081182;28;20036;-76
2022/04/22 07:25:12;;;;;;;5.88;4.38;;;14.20;62.80;;;;;;5068411;28;20031;-75
2022/04/22 07:27:40;;;;;;;5.88;4.72;;;14.20;62.90;;;;;;5096362;28;20024;-76
2022/04/22 07:30:09;;;;;;;5.80;4.55;;;14.20;62.90;;;;;;5074691;28;20465;-77
2022/04/22 07:32:39;;;;;;;6.63;4.65;;;14.20;62.90;;;;;;5091948;28;20016;-77
2022/04/22 07:35:12;;;;;;;6.57;4.80;;;14.20;62.90;;;;;;5095572;28;20028;-77
2022/04/22 07:37:53;;;;;;;6.22;4.50;;;14.20;62.90;;;;;;5095990;28;20016;-76
2022/04/22 07:40:21;;;;;;;5.93;4.38;;;14.20;62.90;;;;;;5075870;28;20412;-77
2022/04/22 07:48:22;;;;;;;6.38;4.80;;;14.30;62.90;;;;;;5099832;28;20092;-76
2022/04/22 07:50:48;;;;;;;5.82;4.55;;;14.20;63.50;;;;;;5085390;28;20035;-78
2022/04/22 07:53:18;;;;;;;5.75;4.60;;;14.20;62.90;;;;;;5101880;28;20099;-76
2022/04/22 07:55:44;;;;;;;6.05;4.50;;;14.30;63.00;;;;;;5090608;28;20042;-77
2022/04/22 07:58:10;;;;;;;5.50;4.35;;;14.30;63.10;;;;;;5088954;28;20383;-76
2022/04/22 08:00:44;;;;;;;5.90;4.72;;;14.30;63.00;;;;;;5073457;28;20028;-76
2022/04/22 08:03:17;;;;;;;6.32;5.07;;;14.30;63.10;;;;;;5073145;28;20098;-77
2022/04/22 08:05:43;;;;;;;6.70;4.75;;;14.30;63.00;;;;;;5085166;28;20047;-78
2022/04/22 08:08:09;;;;;;;6.93;4.82;;;14.40;63.10;;;;;;5094797;28;20032;-77
2022/04/22 08:10:36;;;;;;;5.18;4.30;;;14.40;63.20;;;;;;5093561;28;20127;-78
2022/04/22 08:13:05;;;;;;;6.38;4.57;;;14.40;63.20;;;;;;5096221;28;20030;-77
2022/04/22 08:15:31;;;;;;;6.13;5.15;;;14.40;63.20;;;;;;5068143;28;20723;-76
2022/04/22 08:17:57;;;;;;;6.60;4.95;;;14.50;63.30;;;;;;5094758;28;20036;-76
2022/04/22 08:20:23;;;;;;;5.72;4.40;;;14.50;63.20;;;;;;5085032;28;20036;-78
2022/04/22 08:22:48;;;;;;;6.10;4.60;;;14.60;63.20;;;;;;5080916;28;20605;-77
2022/04/22 08:25:14;;;;;;;6.38;4.70;;;14.60;63.20;;;;;;5058498;28;20385;-76
2022/04/22 08:27:40;;;;;;;7.20;4.75;;;14.60;63.20;;;;;;5085415;28;20028;-77
2022/04/22 08:30:07;;;;;;;5.65;4.60;;;14.70;63.20;;;;;;5076085;28;20031;-77
2022/04/22 08:32:33;;;;;;;5.85;4.82;;;14.70;63.10;;;;;;5077389;28;20115;-77
2022/04/22 08:34:59;;;;;;;5.60;4.38;;;14.80;63.20;;;;;;5088725;28;20147;-76
2022/04/22 08:37:25;;;;;;;6.05;4.63;;;14.80;63.10;;;;;;5071782;28;20054;-76
2022/04/22 08:39:50;;;;;;;6.20;4.72;;;14.90;63.10;;;;;;5096406;28;20035;-77
2022/04/22 08:42:23;;;;;;;6.38;4.95;;;14.90;63.10;;;;;;5080952;28;20426;-77
2022/04/22 08:44:49;;;;;;;6.20;4.53;;;14.90;63.00;;;;;;5081717;28;20026;-77
2022/04/22 08:49:59;;;;;;;6.25;4.43;;;15.10;63.00;;;;;;5098081;28;20032;-79
2022/04/22 08:52:26;;;;;;;6.85;4.70;;;15.10;62.90;;;;;;5071872;28;20452;-77
2022/04/22 08:54:54;;;;;;;6.55;4.65;;;15.20;62.90;;;;;;5097777;28;20032;-77
2022/04/22 08:57:21;;;;;;;6.00;4.57;;;15.20;62.90;;;;;;5079473;28;20488;-77
2022/04/22 08:59:46;;;;;;;5.60;4.57;;;15.30;62.80;;;;;;5071837;28;20114;-76
2022/04/22 09:02:19;;;;;;;6.95;4.75;;;15.30;62.70;;;;;;5097629;28;20111;-76
2022/04/22 09:04:45;;;;;;;6.50;4.50;;;15.40;62.80;;;;;;5083654;28;20023;-76
2022/04/22 09:07:13;;;;;;;7.25;5.20;;;15.50;62.70;;;;;;5073542;28;20032;-77
2022/04/22 09:09:43;;;;;;;5.78;4.32;;;15.50;62.70;;;;;;5093195;28;20051;-78
2022/04/22 09:12:11;;;;;;;6.18;4.57;;;15.60;62.70;;;;;;5071883;28;20062;-73
2022/04/22 09:14:46;;;;;;;5.65;4.15;;;15.70;62.70;;;;;;5073309;28;20032;-78
2022/04/22 09:17:22;;;;;;;5.97;4.20;;;15.70;62.60;;;;;;5092802;28;20048;-75
2022/04/22 09:19:49;;;;;;;6.00;4.30;;;15.80;62.60;;;;;;5075925;28;20597;-78
2022/04/22 09:22:22;;;;;;;6.78;4.65;;;15.80;62.50;;;;;;5096740;28;20046;-78
2022/04/22 09:24:52;;;;;;;5.40;4.13;;;15.90;62.50;;;;;;5100027;28;20057;-77
2022/04/22 09:27:20;;;;;;;6.13;4.15;;;16.00;62.50;;;;;;5080195;28;20062;-76
2022/04/22 09:29:53;;;;;;;5.47;3.95;;;16.10;62.40;;;;;;5087852;28;20024;-78
2022/04/22 09:32:32;;;;;;;6.13;4.50;;;16.10;62.30;;;;;;5089038;28;20098;-76
2022/04/22 09:35:13;;;;;;;5.50;3.80;;;16.20;62.30;;;;;;5098599;28;20021;-77
2022/04/22 09:43:42;;;;;;;6.18;4.10;;;16.50;62.10;;;;;;5090556;28;20024;-78
2022/04/22 09:46:32;;;;;;;4.72;3.90;;;16.60;62.10;;;;;;5083415;28;20048;-77
2022/04/22 09:48:59;;;;;;;5.40;3.95;;;16.70;62.10;;;;;;5105345;28;20599;-76
2022/04/22 09:51:30;;;;;;;5.13;3.85;;;16.70;61.90;;;;;;5089693;28;20036;-78
2022/04/22 09:54:05;;;;;;;5.22;3.85;;;16.90;62.00;;;;;;5102000;28;20035;-76
2022/04/22 09:56:34;;;;;;;7.15;4.10;;;16.90;62.00;;;;;;5103336;28;20028;-75
2022/04/22 09:59:26;;;;;;;5.35;3.92;;;17.00;61.80;;;;;;5105040;28;20031;-76
2022/04/22 10:01:52;;;;;;;5.28;3.83;;;17.10;61.90;;;;;;5094055;28;20040;-76
2022/04/22 10:04:19;;;;;;;5.15;3.65;;;17.20;61.70;;;;;;5083256;28;20031;-77
2022/04/22 10:06:46;;;;;;;5.03;3.88;;;17.30;61.70;;;;;;5100374;28;20127;-77
2022/04/22 10:09:16;;;;;;;5.00;3.80;;;17.30;61.60;;;;;;5092964;28;20112;-76
2022/04/22 10:11:43;;;;;;;4.55;3.40;;;17.40;61.60;;;;;;5086873;28;20040;-79
2022/04/22 10:14:10;;;;;;;4.60;3.38;;;17.50;61.70;;;;;;5093000;28;20091;-76
2022/04/22 10:16:36;;;;;;;5.88;3.85;;;17.60;61.60;;;;;;5067035;28;20032;-79
2022/04/22 10:19:03;;;;;;;5.72;3.63;;;17.70;61.60;;;;;;5069773;28;20055;-76
2022/04/22 10:21:29;;;;;;;5.28;3.63;;;17.70;61.50;;;;;;5103418;28;20126;-76
2022/04/22 10:23:56;;;;;;;5.20;3.53;;;17.80;62.20;;;;;;5102242;28;20420;-77
2022/04/22 10:26:23;;;;;;;5.20;3.55;;;17.90;61.50;;;;;;5083414;28;20024;-76
2022/04/22 10:28:49;;;;;;;4.97;3.67;;;18.00;61.50;;;;;;5091925;28;20020;-78
2022/04/22 10:31:16;;;;;;;5.60;3.80;;;18.10;62.10;;;;;;5091250;28;20032;-76
2022/04/22 10:33:44;;;;;;;4.53;3.38;;;18.20;61.50;;;;;;5082596;28;20031;-76
2022/04/22 10:36:32;;;;;;;4.75;3.20;;;18.30;61.40;;;;;;5100586;28;20024;-77
2022/04/22 10:38:58;;;;;;;4.68;3.25;;;18.30;61.40;;;;;;5097445;28;20669;-76
2022/04/22 10:41:24;;;;;;;4.25;2.85;;;18.40;61.30;;;;;;5094069;28;20085;-75
2022/04/22 10:49:44;;;;;;;4.15;2.97;;;18.70;61.20;;;;;;5091296;28;20093;-77
2022/04/22 10:52:15;;;;;;;4.20;3.20;;;18.70;61.10;;;;;;5093793;28;20020;-79
2022/04/22 10:54:53;;;;;;;3.85;3.00;;;18.80;61.10;;;;;;5104134;28;20039;-78
2022/04/22 10:57:20;;;;;;;3.92;2.97;;;18.90;61.10;;;;;;5091351;28;20032;-77
2022/04/22 11:00:07;;;;;;;4.78;2.92;;;19.00;61.00;;;;;;5088928;28;20569;-77
2022/04/22 11:02:34;;;;;;;4.32;2.92;;;19.00;61.00;;;;;;5083296;28;20036;-76
2022/04/22 11:08:05;;;;;;;3.42;2.55;;;19.20;60.90;;;;;;5091135;28;20547;-76
2022/04/22 11:10:46;;;;;;;4.43;2.95;;;19.20;60.80;;;;;;5099452;28;20500;-76
2022/04/22 11:13:50;;;;;;;3.83;2.70;;;19.30;60.70;;;;;;5097046;28;20084;-77
2022/04/22 11:16:22;;;;;;;3.67;2.72;;;19.30;60.60;;;;;;5035537;28;20396;-77
2022/04/22 11:19:19;;;;;;;4.13;2.90;;;19.40;60.50;;;;;;5088444;28;20516;-77
2022/04/22 11:21:50;;;;;;;3.47;2.70;;;19.40;60.50;;;;;;5083060;28;20116;-77
2022/04/22 11:24:24;;;;;;;5.05;2.83;;;19.50;60.40;;;;;;5102328;28;20499;-78
2022/04/22 11:26:50;;;;;;;3.25;2.80;;;19.50;60.40;;;;;;5101074;28;20072;-78
2022/04/22 11:29:16;;;;;;;4.78;3.03;;;19.60;60.40;;;;;;5098065;28;20024;-76
2022/04/22 11:32:20;;;;;;;3.55;2.78;;;19.60;60.40;;;;;;5099088;28;20036;-75
2022/04/22 11:34:55;;;;;;;3.60;2.65;;;19.70;60.50;;;;;;5092219;28;20038;-76
2022/04/22 11:37:22;;;;;;;4.45;3.00;;;19.70;60.40;;;;;;5090899;28;20050;-76
2022/04/22 11:39:51;;;;;;;4.88;2.75;;;19.70;60.30;;;;;;5089261;28;20115;-77
2022/04/22 11:42:18;;;;;;;3.63;2.70;;;19.80;60.30;;;;;;5064602;28;20068;-77
2022/04/22 11:45:03;;;;;;;4.07;2.85;;;19.80;60.30;;;;;;5080709;28;20019;-76
2022/04/22 11:47:29;;;;;;;3.50;2.42;;;19.80;60.30;;;;;;5089154;28;20115;-76
2022/04/22 11:49:56;;;;;;;4.10;2.60;;;19.90;60.30;;;;;;5080664;28;20482;-76
2022/04/22 11:52:22;;;;;;;3.83;2.67;;;19.90;60.30;;;;;;5098599;28;20127;-76
2022/04/22 11:54:49;;;;;;;4.00;2.75;;;19.90;60.30;;;;;;5093866;28;20032;-77
2022/04/22 11:57:19;;;;;;;5.07;2.95;;;20.00;60.20;;;;;;5095028;28;20461;-76
2022/04/22 12:05:32;;;;;;;4.80;2.72;;;20.00;60.20;;;;;;5095217;28;20396;-76
2022/04/22 12:05:36;;;;;;;3.70;2.35;;;20.00;60.00;;;;;;5089900;28;20461;-75
2022/04/22 12:08:07;;;;;;;2.75;2.30;;;20.00;60.00;;;;;;5072907;28;20035;-75
2022/04/22 12:10:34;;;;;;;3.47;2.50;;;20.10;60.00;;;;;;5085068;28;20036;-75
2022/04/22 12:13:04;;;;;;;3.40;2.30;;;20.10;60.00;;;;;;5100901;28;20468;-74
2022/04/22 12:15:30;;;;;;;3.72;2.65;;;20.10;60.00;;;;;;5095314;28;20457;-76
2022/04/22 12:17:57;;;;;;;3.40;2.38;;;20.10;60.00;;;;;;5080462;28;20074;-76
2022/04/22 12:20:26;;;;;;;3.10;2.35;;;20.20;59.90;;;;;;5093188;28;20071;-75
2022/04/22 12:22:55;;;;;;;3.80;2.50;;;20.20;59.90;;;;;;5097889;28;20035;-75
2022/04/22 12:25:22;;;;;;;5.63;3.00;;;20.20;59.90;;;;;;5094689;28;20476;-75
2022/04/22 12:28:13;;;;;;;3.22;2.30;;;20.20;59.90;;;;;;5096130;28;20513;-76
2022/04/22 12:30:42;;;;;;;3.28;2.20;;;20.20;60.00;;;;;;5092852;28;20115;-76
2022/04/22 12:33:19;;;;;;;3.15;2.13;;;20.30;59.80;;;;;;5083454;28;20085;-76
2022/04/22 12:35:48;;;;;;;3.63;2.42;;;20.30;59.80;;;;;;5094311;28;20677;-75
2022/04/22 12:38:15;;;;;;;3.63;2.30;;;20.30;59.80;;;;;;5089582;28;20468;-75
2022/04/22 12:40:48;;;;;;;2.92;2.15;;;20.30;59.80;;;;;;5086822;28;20483;-75
2022/04/22 12:43:27;;;;;;;3.15;2.22;;;20.30;59.90;;;;;;5096066;28;20067;-76
2022/04/22 12:52:22;;;;;;;2.60;2.22;;;20.50;60.00;;;;;;5095267;28;20028;-76
2022/04/22 12:54:48;;;;;;;3.22;2.38;;;20.50;60.00;;;;;;5091386;28;20024;-76
2022/04/22 12:57:25;;;;;;;3.60;2.30;;;20.50;60.00;;;;;;5097456;28;20046;-76
2022/04/22 12:59:56;;;;;;;3.22;2.13;;;20.50;60.00;;;;;;5095140;28;20522;-77
2022/04/22 13:02:35;;;;;;;2.45;2.15;;;20.50;59.90;;;;;;5087799;28;20562;-77
2022/04/22 13:05:05;;;;;;;3.08;2.35;;;20.60;59.90;;;;;;5083891;28;20032;-77
2022/04/22 13:07:45;;;;;;;3.53;2.40;;;20.60;59.90;;;;;;5082202;28;20032;-77
2022/04/22 13:10:15;;;;;;;3.33;2.20;;;20.60;59.90;;;;;;5097293;28;20472;-78
2022/04/22 13:12:42;;;;;;;2.75;2.17;;;20.70;59.80;;;;;;5093678;28;20036;-76
2022/04/22 13:15:09;;;;;;;3.40;2.20;;;20.70;59.80;;;;;;5071914;28;20056;-77
2022/04/22 13:17:40;;;;;;;3.30;2.45;;;20.70;59.70;;;;;;5080026;28;20469;-77
2022/04/22 13:20:07;;;;;;;2.92;2.30;;;20.80;59.80;;;;;;5093811;28;20480;-77
2022/04/22 13:22:36;;;;;;;3.42;2.63;;;20.90;59.80;;;;;;5093639;28;20028;-76
2022/04/22 13:25:03;;;;;;;3.30;2.40;;;20.80;59.70;;;;;;5087163;28;20034;-77
2022/04/22 13:27:29;;;;;;;2.83;2.30;;;20.90;59.80;;;;;;5103852;28;20019;-77
2022/04/22 13:29:55;;;;;;;3.50;2.35;;;20.90;59.70;;;;;;5078926;28;20039;-77
2022/04/22 13:32:21;;;;;;;3.47;2.47;;;21.00;59.80;;;;;;5081931;28;20032;-77
2022/04/22 13:34:46;;;;;;;4.07;2.58;;;21.00;59.70;;;;;;5075958;28;20032;-76
2022/04/22 13:37:12;;;;;;;3.47;2.42;;;21.00;59.60;;;;;;5078605;28;20111;-77
2022/04/22 13:39:38;;;;;;;3.35;2.30;;;21.00;59.60;;;;;;5087192;28;20039;-76
2022/04/22 13:42:04;;;;;;;3.10;2.22;;;21.10;59.60;;;;;;5069771;28;20028;-76
2022/04/22 13:52:42;;;;;;;4.03;2.20;;;21.20;59.50;;;;;;5089775;28;20039;-75
2022/04/22 13:55:09;;;;;;;3.10;2.25;;;21.20;59.50;;;;;;5086352;28;20023;-76
2022/04/22 13:57:35;;;;;;;3.55;2.60;;;21.20;59.40;;;;;;5100176;28;20070;-75
2022/04/22 14:00:01;;;;;;;2.88;2.30;;;21.20;59.30;;;;;;5100618;28;20040;-75
2022/04/22 14:02:30;;;;;;;2.47;2.00;;;21.20;59.30;;;;;;5097204;28;20020;-75
2022/04/22 14:04:56;;;;;;;3.70;2.35;;;21.30;59.30;;;;;;5075943;28;20040;-76
2022/04/22 14:07:22;;;;;;;2.60;2.08;;;21.30;59.30;;;;;;5086867;28;20020;-76
2022/04/22 14:09:49;;;;;;;3.30;2.33;;;21.30;59.80;;;;;;5100327;28;20024;-77
2022/04/22 14:12:15;;;;;;;3.00;2.20;;;21.30;59.20;;;;;;5083391;28;20037;-75